sensor_id;sensor_type;location;lat;lon;timestamp;temperature;humidity
9885;DHT22;4981;50.966;4.842;2022-11-15T00:00:09;10.30;1.00
9885;DHT22;4981;50.966;4.842;2022-11-15T00:02:36;10.40;1.00
9885;DHT22;4981;50.966;4.842;2022-11-15T00:05:03;10.20;1.00
9885;DHT22;4981;50.966;4.842;2022-11-15T00:07:31;10.40;1.00
9885;DHT22;4981;50.966;4.842;2022-11-15T00:09:58;10.60;1.00
9885;DHT22;4981;50.966;4.842;2022-11-15T00:12:28;10.50;1.00
9885;DHT22;4981;50.966;4.842;2022-11-15T00:14:55;10.50;1.00
9885;DHT22;4981;50.966;4.842;2022-11-15T00:17:23;10.50;1.00
9885;DHT22;4981;50.966;4.842;2022-11-15T00:19:50;10.10;1.00
9885;DHT22;4981;50.966;4.842;2022-11-15T00:22:17;10.50;1.00
9885;DHT22;4981;50.966;4.842;2022-11-15T00:24:44;10.50;1.00
9885;DHT22;4981;50.966;4.842;2022-11-15T00:27:11;10.30;1.00
9885;DHT22;4981;50.966;4.842;2022-11-15T00:29:39;10.60;1.00
9885;DHT22;4981;50.966;4.842;2022-11-15T00:32:09;10.50;1.00
9885;DHT22;4981;50.966;4.842;2022-11-15T00:34:36;10.40;1.00
9885;DHT22;4981;50.966;4.842;2022-11-15T00:37:03;10.50;1.00
9885;DHT22;4981;50.966;4.842;2022-11-15T00:39:29;10.50;1.00
9885;DHT22;4981;50.966;4.842;2022-11-15T00:41:56;10.60;1.00
9885;DHT22;4981;50.966;4.842;2022-11-15T00:44:23;10.60;1.00
9885;DHT22;4981;50.966;4.842;2022-11-15T00:46:52;10.70;1.00
9885;DHT22;4981;50.966;4.842;2022-11-15T00:49:19;10.70;1.00
9885;DHT22;4981;50.966;4.842;2022-11-15T00:51:46;10.80;1.00
9885;DHT22;4981;50.966;4.842;2022-11-15T00:54:13;10.90;1.00
9885;DHT22;4981;50.966;4.842;2022-11-15T00:56:40;10.70;1.00
9885;DHT22;4981;50.966;4.842;2022-11-15T00:59:07;10.70;1.00
9885;DHT22;4981;50.966;4.842;2022-11-15T01:01:35;10.70;1.00
9885;DHT22;4981;50.966;4.842;2022-11-15T01:04:03;10.70;1.00
9885;DHT22;4981;50.966;4.842;2022-11-15T01:06:31;10.70;1.00
9885;DHT22;4981;50.966;4.842;2022-11-15T01:08:58;10.70;1.00
9885;DHT22;4981;50.966;4.842;2022-11-15T01:11:26;10.80;1.00
9885;DHT22;4981;50.966;4.842;2022-11-15T01:13:52;10.70;1.00
9885;DHT22;4981;50.966;4.842;2022-11-15T01:16:21;10.80;1.00
9885;DHT22;4981;50.966;4.842;2022-11-15T01:18:48;10.80;1.00
9885;DHT22;4981;50.966;4.842;2022-11-15T01:21:19;10.80;1.00
9885;DHT22;4981;50.966;4.842;2022-11-15T01:23:46;11.20;1.00
9885;DHT22;4981;50.966;4.842;2022-11-15T01:26:15;10.80;1.00
9885;DHT22;4981;50.966;4.842;2022-11-15T01:28:42;10.70;1.00
9885;DHT22;4981;50.966;4.842;2022-11-15T01:31:13;10.80;1.00
9885;DHT22;4981;50.966;4.842;2022-11-15T01:33:41;10.80;1.00
9885;DHT22;4981;50.966;4.842;2022-11-15T01:36:11;10.80;1.00
9885;DHT22;4981;50.966;4.842;2022-11-15T01:38:40;10.90;1.00
9885;DHT22;4981;50.966;4.842;2022-11-15T01:41:14;10.60;1.00
9885;DHT22;4981;50.966;4.842;2022-11-15T01:43:42;10.90;1.00
9885;DHT22;4981;50.966;4.842;2022-11-15T01:46:23;10.90;1.00
9885;DHT22;4981;50.966;4.842;2022-11-15T01:48:53;10.90;1.00
9885;DHT22;4981;50.966;4.842;2022-11-15T01:51:23;10.90;1.00
9885;DHT22;4981;50.966;4.842;2022-11-15T01:53:56;10.90;1.00
9885;DHT22;4981;50.966;4.842;2022-11-15T01:56:27;11.10;1.00
9885;DHT22;4981;50.966;4.842;2022-11-15T01:58:58;11.40;1.00
9885;DHT22;4981;50.966;4.842;2022-11-15T02:01:28;11.00;1.00
9885;DHT22;4981;50.966;4.842;2022-11-15T02:03:59;11.00;1.00
9885;DHT22;4981;50.966;4.842;2022-11-15T02:06:28;11.20;1.00
9885;DHT22;4981;50.966;4.842;2022-11-15T02:08:57;11.10;1.00
9885;DHT22;4981;50.966;4.842;2022-11-15T02:11:25;11.20;1.00
9885;DHT22;4981;50.966;4.842;2022-11-15T02:13:53;11.10;1.00
9885;DHT22;4981;50.966;4.842;2022-11-15T02:16:26;11.30;1.00
9885;DHT22;4981;50.966;4.842;2022-11-15T02:18:59;11.30;1.00
9885;DHT22;4981;50.966;4.842;2022-11-15T02:21:33;11.30;1.00
9885;DHT22;4981;50.966;4.842;2022-11-15T02:24:27;11.30;1.00
9885;DHT22;4981;50.966;4.842;2022-11-15T02:27:27;11.30;1.00
9885;DHT22;4981;50.966;4.842;2022-11-15T02:32:54;11.30;1.00
9885;DHT22;4981;50.966;4.842;2022-11-15T02:35:31;10.90;1.00
9885;DHT22;4981;50.966;4.842;2022-11-15T02:38:07;11.20;1.00
9885;DHT22;4981;50.966;4.842;2022-11-15T02:40:46;11.20;1.00
9885;DHT22;4981;50.966;4.842;2022-11-15T02:43:21;11.20;1.00
9885;DHT22;4981;50.966;4.842;2022-11-15T02:46:09;11.30;1.00
9885;DHT22;4981;50.966;4.842;2022-11-15T02:48:42;11.30;1.00
9885;DHT22;4981;50.966;4.842;2022-11-15T02:51:10;11.20;1.00
9885;DHT22;4981;50.966;4.842;2022-11-15T02:53:38;11.40;1.00
9885;DHT22;4981;50.966;4.842;2022-11-15T02:56:09;11.00;1.00
9885;DHT22;4981;50.966;4.842;2022-11-15T02:58:52;11.30;1.00
9885;DHT22;4981;50.966;4.842;2022-11-15T03:01:32;11.20;1.00
9885;DHT22;4981;50.966;4.842;2022-11-15T03:04:10;11.90;1.00
9885;DHT22;4981;50.966;4.842;2022-11-15T03:06:47;12.10;1.00
9885;DHT22;4981;50.966;4.842;2022-11-15T03:09:27;11.20;1.00
9885;DHT22;4981;50.966;4.842;2022-11-15T03:11:59;11.20;1.00
9885;DHT22;4981;50.966;4.842;2022-11-15T03:14:30;11.20;1.00
9885;DHT22;4981;50.966;4.842;2022-11-15T03:17:04;11.20;1.00
9885;DHT22;4981;50.966;4.842;2022-11-15T03:19:42;11.20;1.00
9885;DHT22;4981;50.966;4.842;2022-11-15T03:22:13;11.20;1.00
9885;DHT22;4981;50.966;4.842;2022-11-15T03:24:43;11.20;1.00
9885;DHT22;4981;50.966;4.842;2022-11-15T03:27:14;11.20;1.00
9885;DHT22;4981;50.966;4.842;2022-11-15T03:29:46;11.30;1.00
9885;DHT22;4981;50.966;4.842;2022-11-15T03:32:18;11.20;1.00
9885;DHT22;4981;50.966;4.842;2022-11-15T03:34:50;11.60;1.00
9885;DHT22;4981;50.966;4.842;2022-11-15T03:37:22;11.20;1.00
9885;DHT22;4981;50.966;4.842;2022-11-15T03:39:49;11.10;1.00
9885;DHT22;4981;50.966;4.842;2022-11-15T03:42:21;11.10;1.00
9885;DHT22;4981;50.966;4.842;2022-11-15T03:44:54;11.30;1.00
9885;DHT22;4981;50.966;4.842;2022-11-15T03:47:29;11.20;1.00
9885;DHT22;4981;50.966;4.842;2022-11-15T03:50:01;11.10;1.00
9885;DHT22;4981;50.966;4.842;2022-11-15T03:52:32;11.20;1.00
9885;DHT22;4981;50.966;4.842;2022-11-15T03:55:02;11.10;1.00
9885;DHT22;4981;50.966;4.842;2022-11-15T03:57:29;11.10;1.00
9885;DHT22;4981;50.966;4.842;2022-11-15T03:59:56;11.10;1.00
9885;DHT22;4981;50.966;4.842;2022-11-15T04:02:23;11.10;1.00
9885;DHT22;4981;50.966;4.842;2022-11-15T04:04:51;11.60;1.00
9885;DHT22;4981;50.966;4.842;2022-11-15T04:07:19;11.10;1.00
9885;DHT22;4981;50.966;4.842;2022-11-15T04:09:47;11.10;1.00
9885;DHT22;4981;50.966;4.842;2022-11-15T04:12:29;10.50;1.00
9885;DHT22;4981;50.966;4.842;2022-11-15T04:15:01;11.10;1.00
9885;DHT22;4981;50.966;4.842;2022-11-15T04:17:39;11.10;1.00
9885;DHT22;4981;50.966;4.842;2022-11-15T04:20:09;11.60;1.00
9885;DHT22;4981;50.966;4.842;2022-11-15T04:22:56;11.10;1.00
9885;DHT22;4981;50.966;4.842;2022-11-15T04:25:41;11.10;1.00
9885;DHT22;4981;50.966;4.842;2022-11-15T04:28:09;11.90;1.00
9885;DHT22;4981;50.966;4.842;2022-11-15T04:30:37;11.00;1.00
9885;DHT22;4981;50.966;4.842;2022-11-15T04:33:04;11.10;1.00
9885;DHT22;4981;50.966;4.842;2022-11-15T04:35:32;11.10;1.00
9885;DHT22;4981;50.966;4.842;2022-11-15T04:38:02;11.00;1.00
9885;DHT22;4981;50.966;4.842;2022-11-15T04:40:28;11.00;1.00
9885;DHT22;4981;50.966;4.842;2022-11-15T04:42:56;11.00;1.00
9885;DHT22;4981;50.966;4.842;2022-11-15T04:45:24;11.00;1.00
9885;DHT22;4981;50.966;4.842;2022-11-15T04:47:51;11.00;1.00
9885;DHT22;4981;50.966;4.842;2022-11-15T04:50:18;11.00;1.00
9885;DHT22;4981;50.966;4.842;2022-11-15T04:52:50;11.80;1.00
9885;DHT22;4981;50.966;4.842;2022-11-15T04:55:19;11.00;1.00
9885;DHT22;4981;50.966;4.842;2022-11-15T04:57:47;10.80;1.00
9885;DHT22;4981;50.966;4.842;2022-11-15T05:00:16;10.90;1.00
9885;DHT22;4981;50.966;4.842;2022-11-15T05:02:43;10.90;1.00
9885;DHT22;4981;50.966;4.842;2022-11-15T05:05:28;10.90;1.00
9885;DHT22;4981;50.966;4.842;2022-11-15T05:07:55;10.80;1.00
9885;DHT22;4981;50.966;4.842;2022-11-15T05:10:25;10.80;1.00
9885;DHT22;4981;50.966;4.842;2022-11-15T05:12:52;10.90;1.00
9885;DHT22;4981;50.966;4.842;2022-11-15T05:15:19;10.80;1.00
9885;DHT22;4981;50.966;4.842;2022-11-15T05:17:47;10.60;1.00
9885;DHT22;4981;50.966;4.842;2022-11-15T05:20:14;10.60;1.00
9885;DHT22;4981;50.966;4.842;2022-11-15T05:22:41;10.70;1.00
9885;DHT22;4981;50.966;4.842;2022-11-15T05:25:10;10.20;1.00
9885;DHT22;4981;50.966;4.842;2022-11-15T05:27:38;10.60;1.00
9885;DHT22;4981;50.966;4.842;2022-11-15T05:30:06;10.60;1.00
9885;DHT22;4981;50.966;4.842;2022-11-15T05:32:33;10.70;1.00
9885;DHT22;4981;50.966;4.842;2022-11-15T05:35:01;10.70;1.00
9885;DHT22;4981;50.966;4.842;2022-11-15T05:37:28;10.70;1.00
9885;DHT22;4981;50.966;4.842;2022-11-15T05:39:56;10.90;1.00
9885;DHT22;4981;50.966;4.842;2022-11-15T05:42:23;10.60;1.00
9885;DHT22;4981;50.966;4.842;2022-11-15T05:44:53;10.60;1.00
9885;DHT22;4981;50.966;4.842;2022-11-15T05:47:23;10.60;1.00
9885;DHT22;4981;50.966;4.842;2022-11-15T05:49:52;10.60;1.00
9885;DHT22;4981;50.966;4.842;2022-11-15T05:52:31;10.90;1.00
9885;DHT22;4981;50.966;4.842;2022-11-15T05:55:01;10.60;1.00
9885;DHT22;4981;50.966;4.842;2022-11-15T05:57:29;10.60;1.00
9885;DHT22;4981;50.966;4.842;2022-11-15T05:59:58;10.50;1.00
9885;DHT22;4981;50.966;4.842;2022-11-15T06:02:25;10.40;1.00
9885;DHT22;4981;50.966;4.842;2022-11-15T06:04:52;10.50;1.00
9885;DHT22;4981;50.966;4.842;2022-11-15T06:07:19;10.50;1.00
9885;DHT22;4981;50.966;4.842;2022-11-15T06:09:47;10.40;1.00
9885;DHT22;4981;50.966;4.842;2022-11-15T06:12:14;10.40;1.00
9885;DHT22;4981;50.966;4.842;2022-11-15T06:14:42;10.30;1.00
9885;DHT22;4981;50.966;4.842;2022-11-15T06:17:11;10.30;1.00
9885;DHT22;4981;50.966;4.842;2022-11-15T06:19:38;10.30;1.00
9885;DHT22;4981;50.966;4.842;2022-11-15T06:22:04;10.20;1.00
9885;DHT22;4981;50.966;4.842;2022-11-15T06:24:32;10.20;1.00
9885;DHT22;4981;50.966;4.842;2022-11-15T06:26:59;10.30;1.00
9885;DHT22;4981;50.966;4.842;2022-11-15T06:29:26;10.20;1.00
9885;DHT22;4981;50.966;4.842;2022-11-15T06:31:53;10.30;1.00
9885;DHT22;4981;50.966;4.842;2022-11-15T06:34:21;10.20;1.00
9885;DHT22;4981;50.966;4.842;2022-11-15T06:36:48;10.20;1.00
9885;DHT22;4981;50.966;4.842;2022-11-15T06:39:15;10.20;1.00
9885;DHT22;4981;50.966;4.842;2022-11-15T06:41:42;10.10;1.00
9885;DHT22;4981;50.966;4.842;2022-11-15T06:44:10;10.00;1.00
9885;DHT22;4981;50.966;4.842;2022-11-15T06:46:37;9.40;1.00
9885;DHT22;4981;50.966;4.842;2022-11-15T06:49:05;9.80;1.00
9885;DHT22;4981;50.966;4.842;2022-11-15T06:51:34;9.90;1.00
9885;DHT22;4981;50.966;4.842;2022-11-15T06:54:01;9.60;1.00
9885;DHT22;4981;50.966;4.842;2022-11-15T06:56:28;9.80;1.00
9885;DHT22;4981;50.966;4.842;2022-11-15T06:58:55;9.80;1.00
9885;DHT22;4981;50.966;4.842;2022-11-15T07:01:23;9.70;1.00
9885;DHT22;4981;50.966;4.842;2022-11-15T07:03:50;9.60;1.00
9885;DHT22;4981;50.966;4.842;2022-11-15T07:06:17;10.10;1.00
9885;DHT22;4981;50.966;4.842;2022-11-15T07:08:46;10.30;1.00
9885;DHT22;4981;50.966;4.842;2022-11-15T07:11:14;10.40;1.00
9885;DHT22;4981;50.966;4.842;2022-11-15T07:13:41;9.70;1.00
9885;DHT22;4981;50.966;4.842;2022-11-15T07:16:08;9.70;1.00
9885;DHT22;4981;50.966;4.842;2022-11-15T07:18:37;9.50;1.00
9885;DHT22;4981;50.966;4.842;2022-11-15T07:21:06;9.50;1.00
9885;DHT22;4981;50.966;4.842;2022-11-15T07:23:36;9.50;1.00
9885;DHT22;4981;50.966;4.842;2022-11-15T07:26:07;8.90;1.00
9885;DHT22;4981;50.966;4.842;2022-11-15T07:28:34;9.40;1.00
9885;DHT22;4981;50.966;4.842;2022-11-15T07:31:03;9.50;1.00
9885;DHT22;4981;50.966;4.842;2022-11-15T07:33:30;9.50;1.00
9885;DHT22;4981;50.966;4.842;2022-11-15T07:35:59;9.50;1.00
9885;DHT22;4981;50.966;4.842;2022-11-15T07:38:27;9.50;1.00
9885;DHT22;4981;50.966;4.842;2022-11-15T07:40:56;9.50;1.00
9885;DHT22;4981;50.966;4.842;2022-11-15T07:43:25;9.80;1.00
9885;DHT22;4981;50.966;4.842;2022-11-15T07:45:53;9.40;1.00
9885;DHT22;4981;50.966;4.842;2022-11-15T07:48:20;9.40;1.00
9885;DHT22;4981;50.966;4.842;2022-11-15T07:50:48;9.40;1.00
9885;DHT22;4981;50.966;4.842;2022-11-15T07:53:15;8.80;1.00
9885;DHT22;4981;50.966;4.842;2022-11-15T07:55:42;9.30;1.00
9885;DHT22;4981;50.966;4.842;2022-11-15T07:58:10;9.40;1.00
9885;DHT22;4981;50.966;4.842;2022-11-15T08:00:39;9.30;1.00
9885;DHT22;4981;50.966;4.842;2022-11-15T08:03:08;9.40;1.00
9885;DHT22;4981;50.966;4.842;2022-11-15T08:05:36;9.40;1.00
9885;DHT22;4981;50.966;4.842;2022-11-15T08:08:03;9.40;1.00
9885;DHT22;4981;50.966;4.842;2022-11-15T08:10:31;9.40;1.00
9885;DHT22;4981;50.966;4.842;2022-11-15T08:12:59;9.50;1.00
9885;DHT22;4981;50.966;4.842;2022-11-15T08:15:27;9.50;1.00
9885;DHT22;4981;50.966;4.842;2022-11-15T08:17:56;9.50;1.00
9885;DHT22;4981;50.966;4.842;2022-11-15T08:20:24;9.50;1.00
9885;DHT22;4981;50.966;4.842;2022-11-15T08:22:52;9.80;1.00
9885;DHT22;4981;50.966;4.842;2022-11-15T08:25:19;10.60;1.00
9885;DHT22;4981;50.966;4.842;2022-11-15T08:27:46;9.70;1.00
9885;DHT22;4981;50.966;4.842;2022-11-15T08:30:13;9.70;1.00
9885;DHT22;4981;50.966;4.842;2022-11-15T08:32:41;9.90;1.00
9885;DHT22;4981;50.966;4.842;2022-11-15T08:35:10;10.00;1.00
9885;DHT22;4981;50.966;4.842;2022-11-15T08:37:37;9.90;1.00
9885;DHT22;4981;50.966;4.842;2022-11-15T08:40:05;10.30;1.00
9885;DHT22;4981;50.966;4.842;2022-11-15T08:42:33;10.20;1.00
9885;DHT22;4981;50.966;4.842;2022-11-15T08:45:00;10.30;1.00
9885;DHT22;4981;50.966;4.842;2022-11-15T08:47:27;10.10;1.00
9885;DHT22;4981;50.966;4.842;2022-11-15T08:49:55;10.40;1.00
9885;DHT22;4981;50.966;4.842;2022-11-15T08:52:23;10.50;1.00
9885;DHT22;4981;50.966;4.842;2022-11-15T08:54:50;10.40;1.00
9885;DHT22;4981;50.966;4.842;2022-11-15T08:57:17;10.30;1.00
9885;DHT22;4981;50.966;4.842;2022-11-15T08:59:44;10.30;1.00
9885;DHT22;4981;50.966;4.842;2022-11-15T09:02:14;10.30;1.00
9885;DHT22;4981;50.966;4.842;2022-11-15T09:04:42;10.40;1.00
9885;DHT22;4981;50.966;4.842;2022-11-15T09:07:09;10.40;1.00
9885;DHT22;4981;50.966;4.842;2022-11-15T09:09:39;10.30;1.00
9885;DHT22;4981;50.966;4.842;2022-11-15T09:12:07;9.90;1.00
9885;DHT22;4981;50.966;4.842;2022-11-15T09:14:34;10.60;1.00
9885;DHT22;4981;50.966;4.842;2022-11-15T09:17:01;10.40;1.00
9885;DHT22;4981;50.966;4.842;2022-11-15T09:19:28;10.60;1.00
9885;DHT22;4981;50.966;4.842;2022-11-15T09:21:55;10.40;1.00
9885;DHT22;4981;50.966;4.842;2022-11-15T09:24:23;10.50;1.00
9885;DHT22;4981;50.966;4.842;2022-11-15T09:26:52;10.40;1.00
9885;DHT22;4981;50.966;4.842;2022-11-15T09:29:19;11.10;1.00
9885;DHT22;4981;50.966;4.842;2022-11-15T09:31:46;10.90;1.00
9885;DHT22;4981;50.966;4.842;2022-11-15T09:34:14;10.80;1.00
9885;DHT22;4981;50.966;4.842;2022-11-15T09:36:41;10.80;1.00
9885;DHT22;4981;50.966;4.842;2022-11-15T09:39:09;10.90;1.00
9885;DHT22;4981;50.966;4.842;2022-11-15T09:44:42;10.70;1.00
9885;DHT22;4981;50.966;4.842;2022-11-15T09:47:34;10.70;1.00
9885;DHT22;4981;50.966;4.842;2022-11-15T09:50:09;10.60;1.00
9885;DHT22;4981;50.966;4.842;2022-11-15T09:52:39;10.80;1.00
9885;DHT22;4981;50.966;4.842;2022-11-15T09:55:09;10.90;1.00
9885;DHT22;4981;50.966;4.842;2022-11-15T09:57:46;11.00;1.00
9885;DHT22;4981;50.966;4.842;2022-11-15T10:00:18;11.10;1.00
9885;DHT22;4981;50.966;4.842;2022-11-15T10:03:02;10.90;1.00
9885;DHT22;4981;50.966;4.842;2022-11-15T10:05:32;10.30;1.00
9885;DHT22;4981;50.966;4.842;2022-11-15T10:08:10;11.20;1.00
9885;DHT22;4981;50.966;4.842;2022-11-15T10:10:40;11.10;1.00
9885;DHT22;4981;50.966;4.842;2022-11-15T10:13:13;11.50;1.00
9885;DHT22;4981;50.966;4.842;2022-11-15T10:15:42;11.40;1.00
9885;DHT22;4981;50.966;4.842;2022-11-15T10:18:15;11.70;1.00
9885;DHT22;4981;50.966;4.842;2022-11-15T10:20:48;11.60;1.00
9885;DHT22;4981;50.966;4.842;2022-11-15T10:23:18;11.70;1.00
9885;DHT22;4981;50.966;4.842;2022-11-15T10:25:45;11.80;1.00
9885;DHT22;4981;50.966;4.842;2022-11-15T10:28:21;12.30;1.00
9885;DHT22;4981;50.966;4.842;2022-11-15T10:30:50;12.50;1.00
9885;DHT22;4981;50.966;4.842;2022-11-15T10:33:25;12.00;1.00
9885;DHT22;4981;50.966;4.842;2022-11-15T10:36:14;12.10;1.00
9885;DHT22;4981;50.966;4.842;2022-11-15T10:38:57;11.70;1.00
9885;DHT22;4981;50.966;4.842;2022-11-15T10:41:35;12.00;1.00
9885;DHT22;4981;50.966;4.842;2022-11-15T10:44:20;12.00;1.00
9885;DHT22;4981;50.966;4.842;2022-11-15T10:47:03;13.00;1.00
9885;DHT22;4981;50.966;4.842;2022-11-15T10:49:31;11.90;1.00
9885;DHT22;4981;50.966;4.842;2022-11-15T10:52:00;11.80;1.00
9885;DHT22;4981;50.966;4.842;2022-11-15T10:54:30;11.80;1.00
9885;DHT22;4981;50.966;4.842;2022-11-15T10:57:04;11.90;1.00
9885;DHT22;4981;50.966;4.842;2022-11-15T10:59:36;11.90;1.00
9885;DHT22;4981;50.966;4.842;2022-11-15T11:02:31;12.10;1.00
9885;DHT22;4981;50.966;4.842;2022-11-15T11:05:00;12.10;1.00
9885;DHT22;4981;50.966;4.842;2022-11-15T11:07:30;12.30;1.00
9885;DHT22;4981;50.966;4.842;2022-11-15T11:10:04;12.50;1.00
9885;DHT22;4981;50.966;4.842;2022-11-15T11:12:33;12.40;1.00
9885;DHT22;4981;50.966;4.842;2022-11-15T11:15:15;12.50;1.00
9885;DHT22;4981;50.966;4.842;2022-11-15T11:17:56;12.70;1.00
9885;DHT22;4981;50.966;4.842;2022-11-15T11:20:29;12.70;1.00
9885;DHT22;4981;50.966;4.842;2022-11-15T11:23:05;12.60;1.00
9885;DHT22;4981;50.966;4.842;2022-11-15T11:25:50;12.60;1.00
9885;DHT22;4981;50.966;4.842;2022-11-15T11:28:30;12.80;1.00
9885;DHT22;4981;50.966;4.842;2022-11-15T11:31:14;12.40;1.00
9885;DHT22;4981;50.966;4.842;2022-11-15T11:33:50;12.70;1.00
9885;DHT22;4981;50.966;4.842;2022-11-15T11:36:26;13.00;1.00
9885;DHT22;4981;50.966;4.842;2022-11-15T11:39:00;13.20;1.00
9885;DHT22;4981;50.966;4.842;2022-11-15T11:41:42;13.20;1.00
9885;DHT22;4981;50.966;4.842;2022-11-15T11:44:28;13.10;1.00
9885;DHT22;4981;50.966;4.842;2022-11-15T11:47:01;13.00;1.00
9885;DHT22;4981;50.966;4.842;2022-11-15T11:49:34;13.30;1.00
9885;DHT22;4981;50.966;4.842;2022-11-15T11:52:10;13.50;1.00
9885;DHT22;4981;50.966;4.842;2022-11-15T11:54:45;13.20;1.00
9885;DHT22;4981;50.966;4.842;2022-11-15T11:57:21;13.80;1.00
9885;DHT22;4981;50.966;4.842;2022-11-15T11:59:55;13.30;1.00
9885;DHT22;4981;50.966;4.842;2022-11-15T12:02:29;13.30;1.00
9885;DHT22;4981;50.966;4.842;2022-11-15T12:05:03;13.10;1.00
9885;DHT22;4981;50.966;4.842;2022-11-15T12:07:36;13.20;1.00
9885;DHT22;4981;50.966;4.842;2022-11-15T12:10:20;13.20;1.00
9885;DHT22;4981;50.966;4.842;2022-11-15T12:12:55;13.40;1.00
9885;DHT22;4981;50.966;4.842;2022-11-15T12:15:26;13.20;1.00
9885;DHT22;4981;50.966;4.842;2022-11-15T12:17:56;13.30;1.00
9885;DHT22;4981;50.966;4.842;2022-11-15T12:20:26;13.20;1.00
9885;DHT22;4981;50.966;4.842;2022-11-15T12:22:56;13.00;1.00
9885;DHT22;4981;50.966;4.842;2022-11-15T12:25:29;13.40;1.00
9885;DHT22;4981;50.966;4.842;2022-11-15T12:28:00;13.10;1.00
9885;DHT22;4981;50.966;4.842;2022-11-15T12:30:50;13.00;1.00
9885;DHT22;4981;50.966;4.842;2022-11-15T12:33:44;13.10;1.00
9885;DHT22;4981;50.966;4.842;2022-11-15T12:36:30;13.10;1.00
9885;DHT22;4981;50.966;4.842;2022-11-15T12:38:58;13.20;1.00
9885;DHT22;4981;50.966;4.842;2022-11-15T12:41:27;13.30;1.00
9885;DHT22;4981;50.966;4.842;2022-11-15T12:43:55;13.20;1.00
9885;DHT22;4981;50.966;4.842;2022-11-15T12:46:59;13.20;1.00
9885;DHT22;4981;50.966;4.842;2022-11-15T12:49:45;13.10;1.00
9885;DHT22;4981;50.966;4.842;2022-11-15T12:52:13;13.20;1.00
9885;DHT22;4981;50.966;4.842;2022-11-15T12:57:52;13.20;1.00
9885;DHT22;4981;50.966;4.842;2022-11-15T13:00:44;13.30;1.00
9885;DHT22;4981;50.966;4.842;2022-11-15T13:03:24;13.10;1.00
9885;DHT22;4981;50.966;4.842;2022-11-15T13:06:00;13.10;1.00
9885;DHT22;4981;50.966;4.842;2022-11-15T13:08:43;13.00;1.00
9885;DHT22;4981;50.966;4.842;2022-11-15T13:11:50;13.00;1.00
9885;DHT22;4981;50.966;4.842;2022-11-15T13:17:32;13.00;1.00
9885;DHT22;4981;50.966;4.842;2022-11-15T13:20:22;12.70;1.00
9885;DHT22;4981;50.966;4.842;2022-11-15T13:22:52;13.10;1.00
9885;DHT22;4981;50.966;4.842;2022-11-15T13:28:32;13.20;1.00
9885;DHT22;4981;50.966;4.842;2022-11-15T13:31:03;13.20;1.00
9885;DHT22;4981;50.966;4.842;2022-11-15T13:33:40;12.90;1.00
9885;DHT22;4981;50.966;4.842;2022-11-15T13:36:13;13.80;1.00
9885;DHT22;4981;50.966;4.842;2022-11-15T13:38:43;13.30;1.00
9885;DHT22;4981;50.966;4.842;2022-11-15T13:41:18;13.30;1.00
9885;DHT22;4981;50.966;4.842;2022-11-15T13:43:46;13.40;1.00
9885;DHT22;4981;50.966;4.842;2022-11-15T13:46:16;13.40;1.00
9885;DHT22;4981;50.966;4.842;2022-11-15T13:48:45;13.40;1.00
9885;DHT22;4981;50.966;4.842;2022-11-15T13:51:17;13.30;1.00
9885;DHT22;4981;50.966;4.842;2022-11-15T13:53:50;13.20;1.00
9885;DHT22;4981;50.966;4.842;2022-11-15T13:56:19;13.20;1.00
9885;DHT22;4981;50.966;4.842;2022-11-15T13:58:47;13.30;1.00
9885;DHT22;4981;50.966;4.842;2022-11-15T14:01:17;13.90;1.00
9885;DHT22;4981;50.966;4.842;2022-11-15T14:03:50;13.30;1.00
9885;DHT22;4981;50.966;4.842;2022-11-15T14:06:20;13.50;1.00
9885;DHT22;4981;50.966;4.842;2022-11-15T14:12:01;13.10;1.00
9885;DHT22;4981;50.966;4.842;2022-11-15T14:14:29;13.00;1.00
9885;DHT22;4981;50.966;4.842;2022-11-15T14:16:58;13.20;1.00
9885;DHT22;4981;50.966;4.842;2022-11-15T14:19:39;13.10;1.00
9885;DHT22;4981;50.966;4.842;2022-11-15T14:22:18;13.10;1.00
9885;DHT22;4981;50.966;4.842;2022-11-15T14:25:03;13.50;1.00
9885;DHT22;4981;50.966;4.842;2022-11-15T14:27:34;13.90;1.00
9885;DHT22;4981;50.966;4.842;2022-11-15T14:30:01;13.80;1.00
9885;DHT22;4981;50.966;4.842;2022-11-15T14:32:37;13.40;1.00
9885;DHT22;4981;50.966;4.842;2022-11-15T14:35:13;13.70;1.00
9885;DHT22;4981;50.966;4.842;2022-11-15T14:37:40;13.30;1.00
9885;DHT22;4981;50.966;4.842;2022-11-15T14:40:12;13.10;1.00
9885;DHT22;4981;50.966;4.842;2022-11-15T14:42:41;13.20;1.00
9885;DHT22;4981;50.966;4.842;2022-11-15T14:45:13;13.40;1.00
9885;DHT22;4981;50.966;4.842;2022-11-15T14:47:41;13.30;1.00
9885;DHT22;4981;50.966;4.842;2022-11-15T14:50:11;13.20;1.00
9885;DHT22;4981;50.966;4.842;2022-11-15T14:52:39;13.10;1.00
9885;DHT22;4981;50.966;4.842;2022-11-15T14:55:16;13.00;1.00
9885;DHT22;4981;50.966;4.842;2022-11-15T14:57:46;13.10;1.00
9885;DHT22;4981;50.966;4.842;2022-11-15T15:00:15;13.00;1.00
9885;DHT22;4981;50.966;4.842;2022-11-15T15:02:43;12.80;1.00
9885;DHT22;4981;50.966;4.842;2022-11-15T15:05:16;12.90;1.00
9885;DHT22;4981;50.966;4.842;2022-11-15T15:07:44;12.60;1.00
9885;DHT22;4981;50.966;4.842;2022-11-15T15:10:13;12.80;1.00
9885;DHT22;4981;50.966;4.842;2022-11-15T15:12:41;12.80;1.00
9885;DHT22;4981;50.966;4.842;2022-11-15T15:15:14;12.90;1.00
9885;DHT22;4981;50.966;4.842;2022-11-15T15:17:42;12.90;1.00
9885;DHT22;4981;50.966;4.842;2022-11-15T15:20:10;13.00;1.00
9885;DHT22;4981;50.966;4.842;2022-11-15T15:22:37;12.50;1.00
9885;DHT22;4981;50.966;4.842;2022-11-15T15:25:20;12.40;1.00
9885;DHT22;4981;50.966;4.842;2022-11-15T15:27:48;12.30;1.00
9885;DHT22;4981;50.966;4.842;2022-11-15T15:30:17;11.70;1.00
9885;DHT22;4981;50.966;4.842;2022-11-15T15:32:45;12.20;1.00
9885;DHT22;4981;50.966;4.842;2022-11-15T15:35:12;12.40;1.00
9885;DHT22;4981;50.966;4.842;2022-11-15T15:37:40;12.20;1.00
9885;DHT22;4981;50.966;4.842;2022-11-15T15:40:13;12.20;1.00
9885;DHT22;4981;50.966;4.842;2022-11-15T15:42:41;12.20;1.00
9885;DHT22;4981;50.966;4.842;2022-11-15T15:45:09;12.10;1.00
9885;DHT22;4981;50.966;4.842;2022-11-15T15:47:41;12.10;1.00
9885;DHT22;4981;50.966;4.842;2022-11-15T15:50:20;12.40;1.00
9885;DHT22;4981;50.966;4.842;2022-11-15T15:52:48;12.00;1.00
9885;DHT22;4981;50.966;4.842;2022-11-15T15:55:15;11.90;1.00
9885;DHT22;4981;50.966;4.842;2022-11-15T15:57:42;11.90;1.00
9885;DHT22;4981;50.966;4.842;2022-11-15T16:00:10;11.90;1.00
9885;DHT22;4981;50.966;4.842;2022-11-15T16:02:40;11.90;1.00
9885;DHT22;4981;50.966;4.842;2022-11-15T16:05:08;12.00;1.00
9885;DHT22;4981;50.966;4.842;2022-11-15T16:07:35;11.90;1.00
9885;DHT22;4981;50.966;4.842;2022-11-15T16:10:17;11.80;1.00
9885;DHT22;4981;50.966;4.842;2022-11-15T16:12:44;11.80;1.00
9885;DHT22;4981;50.966;4.842;2022-11-15T16:15:11;11.90;1.00
9885;DHT22;4981;50.966;4.842;2022-11-15T16:17:42;12.00;1.00
9885;DHT22;4981;50.966;4.842;2022-11-15T16:20:24;11.80;1.00
9885;DHT22;4981;50.966;4.842;2022-11-15T16:22:54;11.80;1.00
9885;DHT22;4981;50.966;4.842;2022-11-15T16:25:22;11.80;1.00
9885;DHT22;4981;50.966;4.842;2022-11-15T16:27:49;11.80;1.00
9885;DHT22;4981;50.966;4.842;2022-11-15T16:30:18;11.80;1.00
9885;DHT22;4981;50.966;4.842;2022-11-15T16:32:47;11.80;1.00
9885;DHT22;4981;50.966;4.842;2022-11-15T16:35:15;11.60;1.00
9885;DHT22;4981;50.966;4.842;2022-11-15T16:37:43;11.90;1.00
9885;DHT22;4981;50.966;4.842;2022-11-15T16:40:21;11.80;1.00
9885;DHT22;4981;50.966;4.842;2022-11-15T16:42:49;11.70;1.00
9885;DHT22;4981;50.966;4.842;2022-11-15T16:45:16;11.80;1.00
9885;DHT22;4981;50.966;4.842;2022-11-15T16:47:43;11.60;1.00
9885;DHT22;4981;50.966;4.842;2022-11-15T16:50:19;11.90;1.00
9885;DHT22;4981;50.966;4.842;2022-11-15T16:52:50;11.50;1.00
9885;DHT22;4981;50.966;4.842;2022-11-15T16:55:18;11.60;1.00
9885;DHT22;4981;50.966;4.842;2022-11-15T16:57:45;11.60;1.00
9885;DHT22;4981;50.966;4.842;2022-11-15T17:00:13;11.40;1.00
9885;DHT22;4981;50.966;4.842;2022-11-15T17:02:42;11.60;1.00